createdAt,value
2022-08-23T00:02:31.245Z,75.78
2022-08-23T00:05:08.927Z,75.65
2022-08-23T00:07:40.626Z,75.82
2022-08-23T00:10:12.668Z,75.90
2022-08-23T00:12:44.545Z,76.39
2022-08-23T00:15:18.044Z,76.36
2022-08-23T00:17:50.440Z,75.80
2022-08-23T00:20:21.327Z,75.28
2022-08-23T00:22:51.215Z,75.96
2022-08-23T00:25:22.143Z,75.86
2022-08-23T00:27:52.060Z,75.46
2022-08-23T00:30:22.003Z,75.67
2022-08-23T00:33:03.086Z,75.36
2022-08-23T00:35:33.432Z,75.30
2022-08-23T00:38:31.594Z,75.35
2022-08-23T00:40:54.928Z,75.53
2022-08-23T00:43:48.799Z,75.17
2022-08-23T00:46:46.827Z,75.15
2022-08-23T00:49:19.090Z,75.44
2022-08-23T00:51:58.298Z,75.01
2022-08-23T00:54:31.132Z,74.48
2022-08-23T00:57:05.526Z,74.35
2022-08-23T00:59:36.701Z,74.31
2022-08-23T01:02:07.299Z,74.55
2022-08-23T01:04:44.471Z,74.50
2022-08-23T01:07:23.725Z,74.56
2022-08-23T01:09:56.671Z,74.91
2022-08-23T01:12:33.912Z,75.01
2022-08-23T01:15:11.637Z,74.82
2022-08-23T01:17:44.602Z,74.92
2022-08-23T01:20:19.481Z,75.13
2022-08-23T01:22:57.633Z,74.95
2022-08-23T01:25:33.795Z,74.83
2022-08-23T01:28:05.026Z,74.37
2022-08-23T01:30:39.021Z,75.07
2022-08-23T01:33:09.152Z,74.61
2022-08-23T01:35:42.386Z,74.31
2022-08-23T01:38:13.933Z,74.48
2022-08-23T01:40:46.373Z,74.08
2022-08-23T01:43:19.772Z,74.41
2022-08-23T01:45:51.007Z,74.22
2022-08-23T01:48:21.793Z,74.43
2022-08-23T01:50:51.815Z,74.59
2022-08-23T01:53:21.877Z,74.70
2022-08-23T01:55:53.295Z,74.91
2022-08-23T01:58:23.613Z,74.75
2022-08-23T02:00:54.144Z,74.49
2022-08-23T02:03:24.748Z,74.23
2022-08-23T02:05:54.727Z,74.62
2022-08-23T02:08:42.281Z,74.78
2022-08-23T02:11:22.189Z,74.65
2022-08-23T02:13:55.023Z,74.11
2022-08-23T02:16:27.177Z,74.06
2022-08-23T02:19:02.309Z,74.86
2022-08-23T02:21:32.800Z,74.71
2022-08-23T02:24:06.939Z,74.78
2022-08-23T02:26:39.357Z,74.63
2022-08-23T02:29:09.967Z,74.33
2022-08-23T02:31:40.066Z,74.75
2022-08-23T02:34:11.390Z,74.55
2022-08-23T02:36:41.598Z,74.30
2022-08-23T02:39:15.068Z,74.63
2022-08-23T02:41:46.461Z,74.57
2022-08-23T02:44:16.852Z,74.30
2022-08-23T02:46:47.502Z,74.70
2022-08-23T02:49:18.380Z,74.66
2022-08-23T02:51:49.499Z,74.56
2022-08-23T02:54:19.591Z,74.86
2022-08-23T02:56:52.778Z,75.02
2022-08-23T02:59:22.883Z,75.54
2022-08-23T03:01:53.219Z,75.71
2022-08-23T03:04:24.002Z,76.31
2022-08-23T03:06:54.163Z,76.39
2022-08-23T03:09:24.288Z,76.58
2022-08-23T03:11:56.241Z,76.29
2022-08-23T03:14:27.742Z,76.77
2022-08-23T03:16:58.331Z,76.52
2022-08-23T03:19:28.804Z,76.46
2022-08-23T03:21:58.737Z,76.74
2022-08-23T03:24:29.845Z,77.46
2022-08-23T03:27:01.252Z,77.49
2022-08-23T03:29:31.978Z,76.61
2022-08-23T03:32:02.273Z,76.79
2022-08-23T03:34:33.030Z,76.98
2022-08-23T03:37:03.389Z,76.48
2022-08-23T03:39:33.700Z,77.03
2022-08-23T03:42:05.375Z,77.28
2022-08-23T03:44:35.475Z,77.88
2022-08-23T03:47:06.775Z,77.65
2022-08-23T03:49:37.255Z,77.65
2022-08-23T03:52:07.660Z,78.18
2022-08-23T03:54:39.703Z,77.90
2022-08-23T03:57:11.444Z,78.47
2022-08-23T03:59:42.716Z,78.81
2022-08-23T04:02:13.648Z,78.38
2022-08-23T04:04:43.698Z,78.27
2022-08-23T04:07:13.747Z,77.82
2022-08-23T04:09:44.521Z,78.09
2022-08-23T04:12:17.863Z,77.37
2022-08-23T04:14:48.404Z,77.60
2022-08-23T04:17:21.060Z,77.30
2022-08-23T04:19:51.226Z,77.30
2022-08-23T04:22:21.624Z,77.00
2022-08-23T04:24:51.697Z,77.59
2022-08-23T04:27:23.296Z,77.14
2022-08-23T04:29:53.285Z,77.29
2022-08-23T04:32:28.098Z,77.02
2022-08-23T04:34:58.727Z,77.29
2022-08-23T04:37:29.202Z,76.82
2022-08-23T04:40:16.565Z,77.14
2022-08-23T04:42:48.735Z,77.03
2022-08-23T04:45:19.137Z,77.09
2022-08-23T04:47:49.261Z,76.98
2022-08-23T04:50:19.958Z,76.76
2022-08-23T04:52:49.944Z,76.60
2022-08-23T04:55:20.300Z,76.69
2022-08-23T04:57:52.454Z,76.69
2022-08-23T05:00:22.973Z,76.22
2022-08-23T05:02:57.908Z,75.72
2022-08-23T05:05:28.269Z,75.66
2022-08-23T05:07:58.307Z,75.32
2022-08-23T05:10:28.802Z,75.29
2022-08-23T05:13:00.835Z,74.92
2022-08-23T05:15:31.767Z,74.86
2022-08-23T05:18:01.844Z,74.65
2022-08-23T05:20:32.516Z,74.66
2022-08-23T05:23:03.530Z,74.88
2022-08-23T05:25:47.479Z,75.06
2022-08-23T05:28:19.632Z,74.79
2022-08-23T05:30:57.236Z,75.61
2022-08-23T05:33:28.317Z,75.49
2022-08-23T05:35:58.458Z,75.65
2022-08-23T05:38:29.136Z,75.90
2022-08-23T05:41:02.129Z,74.79
2022-08-23T05:43:36.977Z,73.56
2022-08-23T05:46:13.005Z,73.25
2022-08-23T05:48:46.955Z,72.44
2022-08-23T05:51:18.123Z,72.26
2022-08-23T05:53:50.627Z,71.85
2022-08-23T05:56:23.234Z,72.40
2022-08-23T05:58:59.941Z,72.22
2022-08-23T06:01:32.188Z,72.08
2022-08-23T06:04:03.133Z,71.54
2022-08-23T06:06:37.364Z,71.68
2022-08-23T06:09:11.385Z,71.24
2022-08-23T06:11:42.367Z,71.43
2022-08-23T06:14:14.617Z,71.34
2022-08-23T06:16:47.618Z,70.97
2022-08-23T06:19:18.262Z,70.46
2022-08-23T06:21:48.545Z,70.71
2022-08-23T06:24:18.772Z,70.35
2022-08-23T06:26:50.039Z,70.44
2022-08-23T06:29:22.118Z,70.11
2022-08-23T06:31:53.690Z,70.33
2022-08-23T06:34:25.968Z,69.92
2022-08-23T06:36:58.500Z,70.19
2022-08-23T06:39:33.446Z,69.79
2022-08-23T06:42:28.054Z,70.29
2022-08-23T06:45:00.148Z,69.86
2022-08-23T06:47:31.675Z,69.38
2022-08-23T06:50:02.042Z,70.37
2022-08-23T06:52:32.477Z,69.58
2022-08-23T06:55:03.778Z,69.94
2022-08-23T06:57:34.090Z,69.82
2022-08-23T07:00:07.197Z,68.84
2022-08-23T07:02:37.765Z,69.63
2022-08-23T07:05:08.457Z,69.80
2022-08-23T07:07:41.450Z,68.92
2022-08-23T07:10:16.089Z,69.59
2022-08-23T07:12:46.843Z,69.82
2022-08-23T07:15:18.831Z,68.27
2022-08-23T07:17:48.952Z,67.46
2022-08-23T07:20:19.380Z,67.11
2022-08-23T07:22:49.436Z,66.70
2022-08-23T07:25:19.393Z,66.20
2022-08-23T07:27:49.289Z,65.38
2022-08-23T07:30:21.321Z,65.44
2022-08-23T07:32:51.540Z,65.37
2022-08-23T07:35:22.435Z,64.90
2022-08-23T07:37:52.767Z,64.88
2022-08-23T07:40:22.850Z,64.95
2022-08-23T07:42:58.509Z,65.09
2022-08-23T07:45:31.065Z,65.25
2022-08-23T07:48:03.527Z,64.69
2022-08-23T07:50:33.783Z,65.02
2022-08-23T07:53:04.104Z,64.72
2022-08-23T07:55:34.357Z,64.31
2022-08-23T07:58:04.632Z,64.23
2022-08-23T08:00:37.380Z,63.91
2022-08-23T08:03:07.908Z,63.04
2022-08-23T08:05:38.174Z,62.83
2022-08-23T08:08:10.030Z,62.49
2022-08-23T08:10:41.709Z,62.96
2022-08-23T08:13:12.495Z,62.64
2022-08-23T08:15:44.240Z,62.88
2022-08-23T08:18:15.224Z,62.69
2022-08-23T08:20:45.546Z,62.73
2022-08-23T08:23:15.497Z,62.81
2022-08-23T08:25:45.761Z,61.83
2022-08-23T08:28:16.263Z,62.12
2022-08-23T08:30:47.687Z,60.97
2022-08-23T08:33:17.620Z,61.26
2022-08-23T08:35:59.366Z,60.59
2022-08-23T08:38:32.590Z,61.10
2022-08-23T08:41:16.849Z,60.68
2022-08-23T08:43:59.123Z,60.63
2022-08-23T08:46:45.693Z,61.17
2022-08-23T08:49:21.467Z,61.14
2022-08-23T08:51:57.115Z,60.07
2022-08-23T08:54:30.316Z,58.98
2022-08-23T08:57:02.604Z,58.65
2022-08-23T08:59:44.088Z,58.87
2022-08-23T09:02:31.789Z,58.92
2022-08-23T09:05:05.979Z,58.49
2022-08-23T09:07:47.908Z,57.91
2022-08-23T09:10:30.511Z,57.95
2022-08-23T09:13:15.580Z,56.97
2022-08-23T09:15:59.140Z,57.65
2022-08-23T09:18:35.442Z,57.39
2022-08-23T09:21:08.880Z,57.65
2022-08-23T09:23:43.444Z,58.38
2022-08-23T09:26:24.572Z,57.75
2022-08-23T09:28:57.527Z,57.77
2022-08-23T09:31:38.761Z,57.64
2022-08-23T09:34:16.385Z,57.69
2022-08-23T09:36:47.057Z,57.68
2022-08-23T09:39:30.630Z,56.85
2022-08-23T09:42:01.225Z,56.37
2022-08-23T09:44:37.942Z,56.06
2022-08-23T09:47:12.984Z,56.01
2022-08-23T09:49:45.984Z,55.66
2022-08-23T09:52:22.836Z,56.51
2022-08-23T09:54:58.579Z,56.72
2022-08-23T09:57:32.134Z,56.34
2022-08-23T10:00:18.696Z,56.10
2022-08-23T10:02:48.930Z,56.23
2022-08-23T10:05:22.040Z,54.97
2022-08-23T10:07:57.222Z,55.82
2022-08-23T10:10:32.354Z,55.51
2022-08-23T10:13:04.606Z,55.32
2022-08-23T10:15:53.621Z,55.64
2022-08-23T10:18:36.328Z,55.84
2022-08-23T10:21:24.439Z,55.40
2022-08-23T10:24:15.553Z,55.26
2022-08-23T10:27:24.565Z,54.85
2022-08-23T10:30:05.611Z,55.16
2022-08-23T10:32:56.904Z,55.27
2022-08-23T10:35:37.910Z,55.18
2022-08-23T10:38:33.561Z,54.63
2022-08-23T10:41:18.038Z,54.61
2022-08-23T10:43:56.067Z,54.35
2022-08-23T10:46:31.067Z,54.50
2022-08-23T10:49:03.916Z,53.37
2022-08-23T10:51:40.533Z,53.61
2022-08-23T10:54:18.864Z,53.58
2022-08-23T10:56:51.339Z,53.20
2022-08-23T10:59:25.026Z,53.47
2022-08-23T11:02:01.872Z,54.19
2022-08-23T11:04:39.655Z,53.42
2022-08-23T11:07:18.173Z,53.52
2022-08-23T11:09:53.683Z,52.17
2022-08-23T11:12:30.947Z,52.07
2022-08-23T11:15:36.964Z,53.04
2022-08-23T11:18:40.602Z,51.67
2022-08-23T11:21:44.708Z,52.44
2022-08-23T11:24:55.375Z,52.57
2022-08-23T11:27:34.751Z,54.21
2022-08-23T11:30:42.317Z,53.71
2022-08-23T11:33:20.661Z,52.12
2022-08-23T11:35:53.025Z,52.03
2022-08-23T11:38:59.984Z,51.96
2022-08-23T11:41:32.784Z,52.30
2022-08-23T11:44:24.661Z,52.05
2022-08-23T11:47:01.459Z,51.93
2022-08-23T11:49:58.799Z,51.25
2022-08-23T11:53:01.277Z,50.77
2022-08-23T11:56:02.273Z,50.70
2022-08-23T11:58:54.820Z,51.41
2022-08-23T12:01:33.147Z,51.86
2022-08-23T12:04:10.722Z,52.21
2022-08-23T12:06:50.903Z,51.75
2022-08-23T12:09:57.231Z,51.63
2022-08-23T12:12:39.215Z,52.29
2022-08-23T12:15:13.696Z,51.60
2022-08-23T12:18:10.935Z,51.94
2022-08-23T12:20:42.530Z,52.31
2022-08-23T12:23:22.052Z,52.44
2022-08-23T12:26:05.815Z,52.27
2022-08-23T12:28:42.363Z,51.89
2022-08-23T12:31:25.826Z,52.58
2022-08-23T12:34:10.992Z,52.43
2022-08-23T12:36:50.116Z,51.64
2022-08-23T12:39:28.808Z,51.92
2022-08-23T12:42:07.001Z,51.85
2022-08-23T12:44:36.956Z,51.75
2022-08-23T12:47:14.927Z,52.25
2022-08-23T12:49:56.650Z,53.01
2022-08-23T12:52:29.469Z,53.02
2022-08-23T12:55:01.269Z,52.97
2022-08-23T12:57:39.029Z,53.18
2022-08-23T13:00:20.382Z,52.78
2022-08-23T13:02:58.692Z,53.24
2022-08-23T13:05:37.686Z,53.64
2022-08-23T13:08:11.525Z,53.91
2022-08-23T13:10:43.981Z,53.91
2022-08-23T13:13:17.372Z,53.12
2022-08-23T13:15:52.081Z,53.53
2022-08-23T13:18:30.805Z,54.40
2022-08-23T13:21:28.348Z,53.96
2022-08-23T13:24:01.054Z,53.09
2022-08-23T13:26:39.494Z,52.45
2022-08-23T13:29:23.478Z,53.06
2022-08-23T13:32:02.667Z,53.04
2022-08-23T13:34:47.141Z,52.39
2022-08-23T13:37:27.833Z,52.85
2022-08-23T13:40:01.496Z,54.56
2022-08-23T13:42:38.208Z,53.69
2022-08-23T13:45:16.892Z,53.34
2022-08-23T13:47:50.029Z,53.62
2022-08-23T13:50:27.966Z,53.36
2022-08-23T13:53:14.449Z,54.35
2022-08-23T13:55:50.377Z,52.98
2022-08-23T13:58:29.747Z,52.84
2022-08-23T14:01:02.645Z,52.94
2022-08-23T14:03:33.041Z,52.53
2022-08-23T14:06:05.135Z,52.15
2022-08-23T14:08:35.364Z,52.17
2022-08-23T14:11:05.894Z,52.50
2022-08-23T14:13:43.528Z,52.14
2022-08-23T14:16:35.229Z,52.61
2022-08-23T14:19:16.861Z,52.29
2022-08-23T14:22:03.534Z,52.30
2022-08-23T14:24:34.510Z,51.76
2022-08-23T14:27:05.722Z,52.18
2022-08-23T14:29:37.100Z,53.17
2022-08-23T14:32:08.201Z,53.67
2022-08-23T14:34:41.578Z,53.56
2022-08-23T14:40:09.646Z,52.50
2022-08-23T14:42:40.344Z,52.90
2022-08-23T14:45:11.685Z,51.78
2022-08-23T14:47:43.278Z,51.27
2022-08-23T14:50:17.040Z,51.06
2022-08-23T14:52:50.200Z,50.79
2022-08-23T14:55:24.874Z,52.24
2022-08-23T14:57:55.444Z,51.91
2022-08-23T15:00:25.981Z,51.21
2022-08-23T15:02:56.517Z,51.78
2022-08-23T15:05:27.840Z,51.63
2022-08-23T15:07:59.713Z,50.97
2022-08-23T15:11:33.194Z,50.53
2022-08-23T15:13:33.391Z,50.06
2022-08-23T15:16:05.667Z,51.08
2022-08-23T15:18:37.867Z,50.78
2022-08-23T15:21:10.082Z,51.09
2022-08-23T15:23:41.392Z,50.01
2022-08-23T15:26:13.490Z,50.67
2022-08-23T15:28:44.192Z,50.71
2022-08-23T15:31:15.511Z,52.12
2022-08-23T15:33:46.011Z,50.87
2022-08-23T15:36:17.662Z,51.64
2022-08-23T15:38:49.958Z,51.37
2022-08-23T15:41:21.177Z,50.77
2022-08-23T15:43:51.696Z,50.60
2022-08-23T15:46:24.558Z,50.80
2022-08-23T15:49:00.007Z,51.01
2022-08-23T15:51:31.049Z,51.89
2022-08-23T15:54:03.895Z,51.83
2022-08-23T15:56:39.225Z,52.32
2022-08-23T15:59:12.988Z,52.75
2022-08-23T16:01:43.386Z,52.46
2022-08-23T16:04:14.093Z,53.02
2022-08-23T16:06:45.544Z,53.05
2022-08-23T16:09:21.945Z,53.33
2022-08-23T16:11:56.087Z,53.66
2022-08-23T16:14:31.176Z,53.68
2022-08-23T16:17:01.767Z,52.98
2022-08-23T16:19:32.855Z,52.79
2022-08-23T16:22:03.572Z,53.15
2022-08-23T16:24:35.062Z,53.71
2022-08-23T16:27:05.876Z,53.17
2022-08-23T16:29:36.560Z,53.48
2022-08-23T16:32:08.127Z,53.49
2022-08-23T16:34:38.438Z,52.49
2022-08-23T16:37:09.720Z,52.78
2022-08-23T16:39:41.729Z,52.39
2022-08-23T16:42:11.813Z,52.68
2022-08-23T16:44:41.914Z,53.95
2022-08-23T16:47:12.883Z,54.35
2022-08-23T16:49:43.540Z,53.06
2022-08-23T16:52:14.582Z,53.67
2022-08-23T16:54:46.101Z,53.93
2022-08-23T16:57:17.790Z,53.91
2022-08-23T16:59:47.987Z,54.67
2022-08-23T17:02:28.535Z,54.85
2022-08-23T17:04:59.450Z,60.36
2022-08-23T17:07:29.724Z,68.37
2022-08-23T17:10:01.497Z,69.73
2022-08-23T17:12:32.645Z,70.42
2022-08-23T17:15:03.641Z,72.37
2022-08-23T17:17:33.563Z,71.23
2022-08-23T17:20:05.036Z,73.41
2022-08-23T17:22:37.779Z,76.38
2022-08-23T17:25:10.835Z,76.99
2022-08-23T17:27:45.909Z,77.02
2022-08-23T17:30:20.029Z,75.10
2022-08-23T17:32:50.516Z,76.06
2022-08-23T17:35:24.436Z,77.08
